createdAt,value
2022-07-29T00:02:35.689Z,18.15
2022-07-29T00:05:10.927Z,18.06
2022-07-29T00:07:45.271Z,18.07
2022-07-29T00:10:18.843Z,17.99
2022-07-29T00:12:52.280Z,17.83
2022-07-29T00:15:25.855Z,17.77
2022-07-29T00:17:59.589Z,17.78
2022-07-29T00:20:34.055Z,17.74
2022-07-29T00:23:08.220Z,17.70
2022-07-29T00:25:44.106Z,17.73
2022-07-29T00:28:19.939Z,17.70
2022-07-29T00:30:54.189Z,17.61
2022-07-29T00:33:31.335Z,17.50
2022-07-29T00:36:05.039Z,17.51
2022-07-29T00:38:38.779Z,17.54
2022-07-29T00:41:12.537Z,17.50
2022-07-29T00:43:46.751Z,17.44
2022-07-29T00:46:20.221Z,17.44
2022-07-29T00:48:55.826Z,17.37
2022-07-29T00:51:29.617Z,17.36
2022-07-29T00:54:03.922Z,17.42
2022-07-29T00:56:38.570Z,17.40
2022-07-29T00:59:12.077Z,17.40
2022-07-29T01:01:47.260Z,17.34
2022-07-29T01:04:22.838Z,17.31
2022-07-29T01:06:57.619Z,17.21
2022-07-29T01:09:37.301Z,17.10
2022-07-29T01:12:09.086Z,17.01
2022-07-29T01:14:43.530Z,16.87
2022-07-29T01:20:05.619Z,16.53
2022-07-29T01:23:19.308Z,16.39
2022-07-29T01:26:37.447Z,16.41
2022-07-29T01:32:02.721Z,16.18
2022-07-29T01:34:39.908Z,16.02
2022-07-29T01:37:16.580Z,16.03
2022-07-29T01:39:52.957Z,15.99
2022-07-29T01:42:31.676Z,15.98
2022-07-29T01:45:08.181Z,15.99
2022-07-29T01:47:45.061Z,15.99
2022-07-29T01:50:21.321Z,15.97
2022-07-29T01:52:57.899Z,15.94
2022-07-29T01:55:34.780Z,15.87
2022-07-29T01:58:09.444Z,15.79
2022-07-29T02:00:44.827Z,15.82
2022-07-29T02:03:20.934Z,15.81
2022-07-29T02:05:55.436Z,15.84
2022-07-29T02:08:30.676Z,15.85
2022-07-29T02:11:06.146Z,15.84
2022-07-29T02:13:42.186Z,15.83
2022-07-29T02:16:17.582Z,15.72
2022-07-29T02:18:53.796Z,15.67
2022-07-29T02:21:29.751Z,15.64
2022-07-29T02:24:05.105Z,15.53
2022-07-29T02:26:40.079Z,15.45
2022-07-29T02:31:58.364Z,15.48
2022-07-29T02:34:33.577Z,15.35
2022-07-29T02:37:07.764Z,15.33
2022-07-29T02:39:43.402Z,15.35
2022-07-29T02:42:18.517Z,15.34
2022-07-29T02:44:52.868Z,15.34
2022-07-29T02:47:29.287Z,15.35
2022-07-29T02:50:08.774Z,15.34
2022-07-29T02:52:46.273Z,15.47
2022-07-29T02:55:22.791Z,15.64
2022-07-29T02:57:59.410Z,15.82
2022-07-29T03:00:36.137Z,15.89
2022-07-29T03:03:13.347Z,16.00
2022-07-29T03:05:47.126Z,16.04
2022-07-29T03:08:20.672Z,16.09
2022-07-29T03:10:56.366Z,16.22
2022-07-29T03:13:31.984Z,16.31
2022-07-29T03:16:06.697Z,16.38
2022-07-29T03:18:40.795Z,16.36
2022-07-29T03:21:14.459Z,16.34
2022-07-29T03:23:48.912Z,16.35
2022-07-29T03:26:22.999Z,16.41
2022-07-29T03:28:57.980Z,16.44
2022-07-29T03:31:31.639Z,16.43
2022-07-29T03:34:05.284Z,16.45
2022-07-29T03:36:38.818Z,16.50
2022-07-29T03:39:17.287Z,16.59
2022-07-29T03:41:53.698Z,16.84
2022-07-29T03:44:28.535Z,17.02
2022-07-29T03:47:04.012Z,17.15
2022-07-29T03:49:39.832Z,17.33
2022-07-29T03:52:13.493Z,17.48
2022-07-29T03:54:47.392Z,17.54
2022-07-29T03:57:23.726Z,17.55
2022-07-29T03:59:57.459Z,17.50
2022-07-29T04:02:31.694Z,17.47
2022-07-29T04:05:05.300Z,17.49
2022-07-29T04:07:39.201Z,17.48
2022-07-29T04:10:13.482Z,17.56
2022-07-29T04:12:48.699Z,17.65
2022-07-29T04:15:22.495Z,17.86
2022-07-29T04:17:56.058Z,17.97
2022-07-29T04:20:29.707Z,18.14
2022-07-29T04:23:03.795Z,18.23
2022-07-29T04:25:40.696Z,18.09
2022-07-29T04:28:14.606Z,18.00
2022-07-29T04:30:49.948Z,17.93
2022-07-29T04:33:24.893Z,17.94
2022-07-29T04:35:58.734Z,18.06
2022-07-29T04:38:33.737Z,18.10
2022-07-29T04:41:07.882Z,18.11
2022-07-29T04:43:41.584Z,18.11
2022-07-29T04:46:15.784Z,18.12
2022-07-29T04:48:50.667Z,18.13
2022-07-29T04:51:25.075Z,18.14
2022-07-29T04:53:58.600Z,18.11
2022-07-29T04:56:32.120Z,18.00
2022-07-29T04:59:05.523Z,18.02
2022-07-29T05:01:39.116Z,17.99
2022-07-29T05:04:13.078Z,17.99
2022-07-29T05:06:46.791Z,18.03
2022-07-29T05:09:20.039Z,18.13
2022-07-29T05:11:53.738Z,18.15
2022-07-29T05:14:27.633Z,18.19
2022-07-29T05:17:01.827Z,18.28
2022-07-29T05:19:39.555Z,18.43
2022-07-29T05:22:11.252Z,18.46
2022-07-29T05:24:45.970Z,18.54
2022-07-29T05:27:19.937Z,18.60
2022-07-29T05:29:53.134Z,18.71
2022-07-29T05:32:26.792Z,18.83
2022-07-29T05:35:00.513Z,18.97
2022-07-29T05:37:35.501Z,19.00
2022-07-29T05:40:11.495Z,18.92
2022-07-29T05:42:46.724Z,18.86
2022-07-29T05:45:20.176Z,18.93
2022-07-29T05:47:53.878Z,18.98
2022-07-29T05:50:27.696Z,18.99
2022-07-29T05:53:01.644Z,19.01
2022-07-29T05:55:36.874Z,19.04
2022-07-29T05:58:12.375Z,19.14
2022-07-29T06:00:46.185Z,19.26
2022-07-29T06:03:19.362Z,19.38
2022-07-29T06:05:53.254Z,19.37
2022-07-29T06:08:26.749Z,19.43
2022-07-29T06:11:00.816Z,19.42
2022-07-29T06:13:34.720Z,19.40
2022-07-29T06:16:09.036Z,19.41
2022-07-29T06:18:42.845Z,19.48
2022-07-29T06:21:16.927Z,19.47
2022-07-29T06:23:50.785Z,19.40
2022-07-29T06:26:30.852Z,19.39
2022-07-29T06:29:00.151Z,19.41
2022-07-29T06:31:33.743Z,19.39
2022-07-29T06:34:07.509Z,19.36
2022-07-29T06:36:41.249Z,19.38
2022-07-29T06:39:15.135Z,19.42
2022-07-29T06:41:51.620Z,19.54
2022-07-29T06:44:26.975Z,19.81
2022-07-29T06:47:00.569Z,20.10
2022-07-29T06:49:34.185Z,20.15
2022-07-29T06:52:08.627Z,20.10
2022-07-29T06:54:43.802Z,20.10
2022-07-29T06:57:17.651Z,20.22
2022-07-29T06:59:51.004Z,20.55
2022-07-29T07:02:24.667Z,20.70
2022-07-29T07:04:58.407Z,21.35
2022-07-29T07:07:32.066Z,22.68
2022-07-29T07:10:06.706Z,24.95
2022-07-29T07:12:40.173Z,25.47
2022-07-29T07:15:14.492Z,26.33
2022-07-29T07:17:48.034Z,26.16
2022-07-29T07:20:24.517Z,27.58
2022-07-29T07:22:59.098Z,28.59
2022-07-29T07:25:33.244Z,28.94
2022-07-29T07:28:07.214Z,29.65
2022-07-29T07:30:40.668Z,30.41
2022-07-29T07:33:14.198Z,29.56
2022-07-29T07:35:47.876Z,28.82
2022-07-29T07:38:21.550Z,28.12
2022-07-29T07:40:55.051Z,27.18
2022-07-29T07:43:28.764Z,26.77
2022-07-29T07:46:02.538Z,27.24
2022-07-29T07:48:37.235Z,27.23
2022-07-29T07:51:11.042Z,28.70
2022-07-29T07:53:45.689Z,28.43
2022-07-29T07:56:19.387Z,27.29
2022-07-29T07:58:52.936Z,26.31
2022-07-29T08:01:26.743Z,27.11
2022-07-29T08:03:59.999Z,27.50
2022-07-29T08:06:34.889Z,29.19
2022-07-29T08:09:28.316Z,29.78
2022-07-29T08:11:52.066Z,28.40
2022-07-29T08:14:19.110Z,26.88
2022-07-29T08:16:52.823Z,26.83
2022-07-29T08:19:26.227Z,29.88
2022-07-29T08:21:59.737Z,32.33
2022-07-29T08:24:45.502Z,32.69
2022-07-29T08:27:41.983Z,33.24
2022-07-29T08:29:54.700Z,34.51
2022-07-29T08:32:52.047Z,34.58
2022-07-29T08:35:04.938Z,35.03
2022-07-29T08:37:38.455Z,34.96
2022-07-29T08:40:13.483Z,33.12
2022-07-29T08:42:47.124Z,31.24
2022-07-29T08:45:20.770Z,30.58
2022-07-29T08:47:54.874Z,30.63
2022-07-29T08:50:28.507Z,31.71
2022-07-29T08:53:02.317Z,32.80
2022-07-29T08:55:36.244Z,33.19
2022-07-29T08:58:10.551Z,32.37
2022-07-29T09:00:47.135Z,31.25
2022-07-29T09:03:23.486Z,32.52
2022-07-29T09:05:57.421Z,33.78
2022-07-29T09:08:32.742Z,34.28
2022-07-29T09:11:09.451Z,33.19
2022-07-29T09:13:43.407Z,31.63
2022-07-29T09:16:37.193Z,30.89
2022-07-29T09:18:51.966Z,31.36
2022-07-29T09:21:43.170Z,32.35
2022-07-29T09:24:17.317Z,32.51
2022-07-29T09:26:50.793Z,32.70
2022-07-29T09:29:26.280Z,33.55
2022-07-29T09:32:00.121Z,34.18
2022-07-29T09:34:33.673Z,33.05
2022-07-29T09:37:07.380Z,31.32
2022-07-29T09:39:43.519Z,30.33
2022-07-29T09:42:18.516Z,29.77
2022-07-29T09:44:54.014Z,28.48
2022-07-29T09:47:30.271Z,27.25
2022-07-29T09:50:03.998Z,27.52
2022-07-29T09:52:40.553Z,29.94
2022-07-29T09:55:17.942Z,32.29
2022-07-29T09:57:51.558Z,33.31
2022-07-29T10:00:26.460Z,33.60
2022-07-29T10:03:03.987Z,35.04
2022-07-29T10:05:37.714Z,36.16
2022-07-29T10:08:13.546Z,36.18
2022-07-29T10:10:47.150Z,36.21
2022-07-29T10:13:22.053Z,35.38
2022-07-29T10:15:55.446Z,35.07
2022-07-29T10:18:29.629Z,36.10
2022-07-29T10:21:03.411Z,36.24
2022-07-29T10:23:46.894Z,36.38
2022-07-29T10:26:15.645Z,36.48
2022-07-29T10:28:50.211Z,34.56
2022-07-29T10:31:27.510Z,32.57
2022-07-29T10:34:04.058Z,31.22
2022-07-29T10:36:48.355Z,29.91
2022-07-29T10:39:41.695Z,30.74
2022-07-29T10:42:17.033Z,33.04
2022-07-29T10:44:51.256Z,33.63
2022-07-29T10:47:26.104Z,34.60
2022-07-29T10:50:05.151Z,33.87
2022-07-29T10:52:57.523Z,32.41
2022-07-29T10:55:39.418Z,31.05
2022-07-29T10:58:22.479Z,29.42
2022-07-29T11:00:57.675Z,29.00
2022-07-29T11:03:50.818Z,29.17
2022-07-29T11:06:28.218Z,28.80
2022-07-29T11:09:25.698Z,28.16
2022-07-29T11:11:56.900Z,28.15
2022-07-29T11:15:00.452Z,28.07
2022-07-29T11:17:59.630Z,28.36
2022-07-29T11:20:38.203Z,31.54
2022-07-29T11:23:33.888Z,31.54
2022-07-29T11:26:24.094Z,30.55
2022-07-29T11:29:02.678Z,29.60
2022-07-29T11:31:42.789Z,28.87
2022-07-29T11:34:29.677Z,29.24
2022-07-29T11:37:28.103Z,29.07
2022-07-29T11:40:23.162Z,29.79
2022-07-29T11:42:57.372Z,32.01
2022-07-29T11:45:47.259Z,34.84
2022-07-29T11:48:28.742Z,33.53
2022-07-29T11:50:56.757Z,31.37
2022-07-29T11:53:33.369Z,29.72
2022-07-29T11:56:09.428Z,28.52
2022-07-29T11:58:43.953Z,27.64
2022-07-29T12:01:20.318Z,27.06
2022-07-29T12:03:58.646Z,26.61
2022-07-29T12:06:33.191Z,26.83
2022-07-29T12:09:14.552Z,29.83
2022-07-29T12:11:49.085Z,32.24
2022-07-29T12:14:33.192Z,33.91
2022-07-29T12:17:08.177Z,35.15
2022-07-29T12:19:47.201Z,35.56
2022-07-29T12:22:29.894Z,36.16
2022-07-29T12:25:32.263Z,36.98
2022-07-29T12:27:44.388Z,36.72
2022-07-29T12:30:19.161Z,34.38
2022-07-29T12:32:53.455Z,33.62
2022-07-29T12:35:27.055Z,34.03
2022-07-29T12:38:00.634Z,35.27
2022-07-29T12:40:36.164Z,36.48
2022-07-29T12:43:11.370Z,36.26
2022-07-29T12:45:47.185Z,35.92
2022-07-29T12:48:22.833Z,35.79
2022-07-29T12:50:58.592Z,34.31
2022-07-29T12:53:32.494Z,34.16
2022-07-29T12:56:26.643Z,35.46
2022-07-29T12:58:49.407Z,36.73
2022-07-29T13:01:21.967Z,34.90
2022-07-29T13:03:59.639Z,34.08
2022-07-29T13:06:42.012Z,32.60
2022-07-29T13:09:17.239Z,30.98
2022-07-29T13:11:52.199Z,30.41
2022-07-29T13:14:35.475Z,31.50
2022-07-29T13:17:11.809Z,33.16
2022-07-29T13:19:46.240Z,34.20
2022-07-29T13:22:21.699Z,35.32
2022-07-29T13:24:56.661Z,35.69
2022-07-29T13:27:33.156Z,35.63
2022-07-29T13:30:09.703Z,35.92
2022-07-29T13:32:43.247Z,34.67
2022-07-29T13:35:17.948Z,33.35
2022-07-29T13:37:51.981Z,34.22
2022-07-29T13:40:25.801Z,34.41
2022-07-29T13:43:00.000Z,34.67
2022-07-29T13:45:33.801Z,34.95
2022-07-29T13:48:08.883Z,35.34
2022-07-29T13:50:42.575Z,35.84
2022-07-29T13:53:17.586Z,35.82
2022-07-29T13:55:52.512Z,34.45
2022-07-29T13:58:25.901Z,34.62
2022-07-29T14:00:59.487Z,33.23
2022-07-29T14:03:33.062Z,31.56
2022-07-29T14:06:06.960Z,30.33
2022-07-29T14:08:41.036Z,31.05
2022-07-29T14:11:14.619Z,32.41
2022-07-29T14:13:48.199Z,33.40
2022-07-29T14:16:22.543Z,34.04
2022-07-29T14:18:56.602Z,34.22
2022-07-29T14:21:30.405Z,34.29
2022-07-29T14:24:14.164Z,33.85
2022-07-29T14:26:41.396Z,33.72
2022-07-29T14:29:16.302Z,33.16
2022-07-29T14:31:49.659Z,31.28
2022-07-29T14:34:22.933Z,30.43
2022-07-29T14:36:56.622Z,30.90
2022-07-29T14:39:32.012Z,31.00
2022-07-29T14:42:05.528Z,31.50
2022-07-29T14:44:38.822Z,32.16
2022-07-29T14:47:12.289Z,32.68
2022-07-29T14:49:45.612Z,32.15
2022-07-29T14:52:18.905Z,30.49
2022-07-29T14:54:52.083Z,29.06
2022-07-29T14:57:25.376Z,27.87
2022-07-29T14:59:58.654Z,27.14
2022-07-29T15:02:59.247Z,26.65
2022-07-29T15:05:07.696Z,26.28
2022-07-29T15:07:40.902Z,26.13
2022-07-29T15:10:14.775Z,25.98
2022-07-29T15:12:48.844Z,25.83
2022-07-29T15:15:22.385Z,25.72
2022-07-29T15:17:55.623Z,25.53
2022-07-29T15:20:29.318Z,25.42
2022-07-29T15:23:02.497Z,25.40
2022-07-29T15:25:37.329Z,25.30
2022-07-29T15:28:10.559Z,25.08
2022-07-29T15:30:44.004Z,24.63
2022-07-29T15:33:17.783Z,24.20
2022-07-29T15:35:52.065Z,23.92
2022-07-29T15:38:28.945Z,23.68
2022-07-29T15:41:00.901Z,23.46
2022-07-29T15:43:36.272Z,23.32
2022-07-29T15:46:27.189Z,23.18
2022-07-29T15:49:00.934Z,23.13
2022-07-29T15:51:34.857Z,23.25
2022-07-29T15:54:08.391Z,23.22
2022-07-29T15:56:41.701Z,22.90
2022-07-29T15:59:22.430Z,22.61
2022-07-29T16:01:50.335Z,22.41
2022-07-29T16:04:24.744Z,22.33
2022-07-29T16:06:58.658Z,22.42
2022-07-29T16:09:33.501Z,22.73
2022-07-29T16:12:15.430Z,22.90
2022-07-29T16:14:45.177Z,23.05
2022-07-29T16:17:18.601Z,23.14
2022-07-29T16:19:52.113Z,23.12
2022-07-29T16:22:26.454Z,23.05
2022-07-29T16:25:00.035Z,22.93
2022-07-29T16:27:37.681Z,22.70
2022-07-29T16:30:12.374Z,22.52
2022-07-29T16:32:45.684Z,22.33
2022-07-29T16:35:18.984Z,21.99
2022-07-29T16:37:59.460Z,21.71
2022-07-29T16:40:37.095Z,21.71
2022-07-29T16:43:10.523Z,21.72
2022-07-29T16:45:46.084Z,21.82
2022-07-29T16:48:23.146Z,21.96
2022-07-29T16:50:56.671Z,22.00
2022-07-29T16:53:31.117Z,22.05
2022-07-29T16:56:05.798Z,22.13
2022-07-29T16:58:44.012Z,22.13
2022-07-29T17:01:20.860Z,22.17
2022-07-29T17:04:13.080Z,22.35
2022-07-29T17:06:46.927Z,22.48
2022-07-29T17:09:21.270Z,22.62
2022-07-29T17:12:04.073Z,22.58
2022-07-29T17:14:38.471Z,22.54
2022-07-29T17:17:13.776Z,22.55
2022-07-29T17:19:48.292Z,22.56
2022-07-29T17:22:21.984Z,22.41
2022-07-29T17:24:56.059Z,22.32
2022-07-29T17:27:29.649Z,22.15
2022-07-29T17:30:07.505Z,21.96
2022-07-29T17:32:40.918Z,21.83
2022-07-29T17:35:31.875Z,21.71
2022-07-29T17:38:05.475Z,21.45
2022-07-29T17:40:39.307Z,21.19
2022-07-29T17:43:12.931Z,21.14
2022-07-29T17:45:49.058Z,21.11
2022-07-29T17:48:21.675Z,21.15
2022-07-29T17:50:57.609Z,21.10
2022-07-29T17:53:31.253Z,21.01
2022-07-29T17:56:04.930Z,20.84
2022-07-29T17:58:39.509Z,20.59
2022-07-29T18:01:13.055Z,20.37
2022-07-29T18:03:47.150Z,20.24
2022-07-29T18:06:20.459Z,20.14
2022-07-29T18:08:53.858Z,20.02
2022-07-29T18:11:27.833Z,19.92
2022-07-29T18:14:02.429Z,19.84
2022-07-29T18:16:35.958Z,19.77
2022-07-29T18:19:09.319Z,19.71
2022-07-29T18:21:54.033Z,19.65
2022-07-29T18:24:18.144Z,19.58
2022-07-29T18:26:51.891Z,19.50
2022-07-29T18:29:25.381Z,19.44
2022-07-29T18:32:00.190Z,19.39
2022-07-29T18:34:33.976Z,19.37
2022-07-29T18:37:07.911Z,19.37
2022-07-29T18:39:41.739Z,19.35
2022-07-29T18:42:15.594Z,19.28
2022-07-29T18:44:49.864Z,19.19
2022-07-29T18:47:23.365Z,19.12
2022-07-29T18:49:58.459Z,19.10
2022-07-29T18:52:33.414Z,19.04
2022-07-29T18:55:09.143Z,18.99
2022-07-29T18:57:55.770Z,18.94
2022-07-29T19:00:20.570Z,18.90
2022-07-29T19:02:54.944Z,18.85
2022-07-29T19:05:30.151Z,18.82
2022-07-29T19:08:08.350Z,18.81
2022-07-29T19:10:57.109Z,18.83
2022-07-29T19:13:31.551Z,18.83
2022-07-29T19:16:05.449Z,18.86
2022-07-29T19:18:42.234Z,18.88
2022-07-29T19:21:18.145Z,18.83
2022-07-29T19:24:02.474Z,18.82
2022-07-29T19:26:36.813Z,18.74
2022-07-29T19:29:11.950Z,18.74
2022-07-29T19:31:50.242Z,18.72
2022-07-29T19:34:26.170Z,18.71
2022-07-29T19:37:01.069Z,18.68
2022-07-29T19:39:35.848Z,18.68
2022-07-29T19:42:16.913Z,18.66
2022-07-29T19:44:51.082Z,18.65
2022-07-29T19:47:24.395Z,18.64
2022-07-29T19:50:07.133Z,18.58
2022-07-29T19:52:43.070Z,18.50
2022-07-29T19:55:18.767Z,18.44
2022-07-29T19:57:55.112Z,18.39
2022-07-29T20:00:29.883Z,18.36
2022-07-29T20:03:08.813Z,18.34
2022-07-29T20:05:51.416Z,18.32
2022-07-29T20:08:30.732Z,18.30
2022-07-29T20:14:02.842Z,18.25
2022-07-29T20:16:40.552Z,18.18
2022-07-29T20:19:15.584Z,18.12
2022-07-29T20:21:56.214Z,18.08
2022-07-29T20:24:36.740Z,18.04
2022-07-29T20:27:13.481Z,18.01
2022-07-29T20:29:49.242Z,18.01
2022-07-29T20:32:24.027Z,17.99
2022-07-29T20:35:01.541Z,17.97
2022-07-29T20:37:35.361Z,17.95
2022-07-29T20:40:13.898Z,17.91
2022-07-29T20:42:48.329Z,17.88
2022-07-29T20:45:23.829Z,17.82
2022-07-29T20:47:57.987Z,17.73
2022-07-29T20:50:33.476Z,17.66
2022-07-29T20:53:07.270Z,17.63
2022-07-29T20:55:43.171Z,17.59
2022-07-29T20:58:16.443Z,17.55
2022-07-29T21:00:49.851Z,17.56
2022-07-29T21:03:23.135Z,17.56
2022-07-29T21:05:57.002Z,17.58
2022-07-29T21:08:32.180Z,17.53
2022-07-29T21:11:05.770Z,17.45
2022-07-29T21:13:40.122Z,17.42
2022-07-29T21:16:14.846Z,17.42
2022-07-29T21:18:49.831Z,17.40
2022-07-29T21:21:23.919Z,17.39
2022-07-29T21:23:57.358Z,17.46
2022-07-29T21:26:30.622Z,17.48
2022-07-29T21:29:04.112Z,17.46
2022-07-29T21:31:37.864Z,17.49
2022-07-29T21:34:11.285Z,17.55
2022-07-29T21:36:58.614Z,17.60
2022-07-29T21:39:22.274Z,17.49
2022-07-29T21:41:55.475Z,17.40
2022-07-29T21:44:28.784Z,17.34
2022-07-29T21:47:02.513Z,17.31
2022-07-29T21:49:36.010Z,17.29
2022-07-29T21:52:10.453Z,17.31
2022-07-29T21:54:44.692Z,17.29
2022-07-29T21:57:18.404Z,17.28
2022-07-29T21:59:51.604Z,17.24
2022-07-29T22:02:24.862Z,17.20
2022-07-29T22:04:58.058Z,17.16
2022-07-29T22:07:54.418Z,17.15
2022-07-29T22:10:07.119Z,17.11
2022-07-29T22:12:41.529Z,17.08
2022-07-29T22:15:18.068Z,17.02
2022-07-29T22:17:52.054Z,16.96
2022-07-29T22:20:28.493Z,16.93
2022-07-29T22:23:01.665Z,16.84
2022-07-29T22:25:35.350Z,16.78
2022-07-29T22:28:08.725Z,16.69
2022-07-29T22:30:42.465Z,16.65
2022-07-29T22:33:17.922Z,16.58
2022-07-29T22:35:51.573Z,16.56
2022-07-29T22:38:24.710Z,16.54
2022-07-29T22:41:00.702Z,16.50
2022-07-29T22:43:33.323Z,16.47
2022-07-29T22:46:06.501Z,16.47
2022-07-29T22:48:44.296Z,16.39
2022-07-29T22:51:24.766Z,16.29
2022-07-29T22:53:57.951Z,16.18
2022-07-29T22:56:35.785Z,16.13
2022-07-29T22:59:15.782Z,16.06
2022-07-29T23:01:57.451Z,16.04
2022-07-29T23:04:57.001Z,16.04
2022-07-29T23:08:34.001Z,16.06
2022-07-29T23:11:47.862Z,15.95
2022-07-29T23:15:34.967Z,15.92
2022-07-29T23:34:34.134Z,15.79
2022-07-29T23:37:08.431Z,15.59
2022-07-29T23:39:47.938Z,15.51
2022-07-29T23:42:21.575Z,15.40
2022-07-29T23:44:55.193Z,15.32
2022-07-29T23:47:29.186Z,15.27
2022-07-29T23:50:02.457Z,15.22
2022-07-29T23:52:37.177Z,15.16
2022-07-29T23:55:36.502Z,15.15
2022-07-29T23:57:47.371Z,15.11
